Check out our new PWSWeather beta!
PWSweather.com
Personal Weather Stations
Station Observations
79674
AfterstegDE 79674

AfterstegDE 79674

Lat: 47.84344, Lon: 7.92844

Elevation: 809

Station Type: Davis Vantage 2 Aktive

www.wetter-aftersteg.de

High Low Average
Temperature 39.0°F3.9°C 31.6°F-0.2°C 35.9°F2.2°C
Dew Point 36.3°F2.4°C 28.8°F-1.8°C 32.8°F0.4°C
Winds 2.9 mph 4.7 kmh Calm Calm Calm SCalm S
Wind Gusts 6.0 mph9.7 kmh -- --
Humidity 96% 82% 89%
Pressure 30.10 in1019.3 mb 29.96 in1014.6 mb -
Precipitation 0.00 in0.0 mm - -
Hour Temp Dew Point Humidity Winds Wind Gusts Pressure Precip Precip Rate Daily Precip Total
12:02 AM 31.5°F-0.3°C 28.9°F-1.7°C 90% Calm Calm -- 30.10 in1019.3 mb - 0.00 in0.0 mm 0.01 in0.3 mm
12:07 AM 31.5°F-0.3°C 28.6°F-1.9°C 89% Calm Calm -- 30.10 in1019.3 mb - 0.00 in0.0 mm 0.01 in0.3 mm
12:12 AM 31.5°F-0.3°C 28.9°F-1.7°C 90% Calm Calm -- 30.10 in1019.3 mb - 0.00 in0.0 mm 0.00 in0.0 mm
12:17 AM 31.5°F-0.3°C 28.6°F-1.9°C 89% Calm Calm -- 30.10 in1019.3 mb - 0.00 in0.0 mm 0.00 in0.0 mm
12:22 AM 31.5°F-0.3°C 28.6°F-1.9°C 89% Calm Calm -- 30.10 in1019.3 mb - 0.00 in0.0 mm 0.00 in0.0 mm
12:27 AM 31.5°F-0.3°C 28.6°F-1.9°C 89% Calm Calm -- 30.10 in1019.3 mb - 0.00 in0.0 mm 0.00 in0.0 mm
12:32 AM 31.5°F-0.3°C 28.6°F-1.9°C 89% Calm Calm -- 30.11 in1019.6 mb - 0.00 in0.0 mm 0.00 in0.0 mm
12:37 AM 31.5°F-0.3°C 28.9°F-1.7°C 90% Calm Calm -- 30.10 in1019.3 mb - 0.00 in0.0 mm 0.00 in0.0 mm
12:42 AM 31.8°F-0.1°C 28.9°F-1.7°C 89% Calm Calm -- 30.10 in1019.3 mb - 0.00 in0.0 mm 0.00 in0.0 mm
12:47 AM 31.6°F-0.2°C 28.8°F-1.8°C 89% Calm Calm -- 30.10 in1019.3 mb - 0.00 in0.0 mm 0.00 in0.0 mm
12:52 AM 31.5°F-0.3°C 28.6°F-1.9°C 89% Calm Calm -- 30.10 in1019.3 mb - 0.00 in0.0 mm 0.00 in0.0 mm
12:57 AM 31.6°F-0.2°C 28.8°F-1.8°C 89% Calm Calm -- 30.09 in1019.0 mb - 0.00 in0.0 mm 0.00 in0.0 mm
01:02 AM 31.6°F-0.2°C 28.8°F-1.8°C 89% Calm Calm -- 30.09 in1019.0 mb - 0.00 in0.0 mm 0.00 in0.0 mm
01:07 AM 31.6°F-0.2°C 28.8°F-1.8°C 89% Calm Calm -- 30.09 in1019.0 mb - 0.00 in0.0 mm 0.00 in0.0 mm
01:12 AM 32.0°F0.0°C 29.5°F-1.4°C 90% Calm Calm -- 30.09 in1019.0 mb - 0.00 in0.0 mm 0.00 in0.0 mm
01:17 AM 32.2°F0.1°C 29.3°F-1.5°C 89% Calm Calm -- 30.09 in1019.0 mb - 0.00 in0.0 mm 0.00 in0.0 mm
01:22 AM 32.4°F0.2°C 29.1°F-1.6°C 88% Calm Calm -- 30.09 in1019.0 mb - 0.00 in0.0 mm 0.00 in0.0 mm
01:27 AM 32.2°F0.1°C 28.9°F-1.7°C 88% Calm Calm -- 30.09 in1019.0 mb - 0.00 in0.0 mm 0.00 in0.0 mm
01:32 AM 32.2°F0.1°C 28.9°F-1.7°C 88% Calm Calm -- 30.09 in1019.0 mb - 0.00 in0.0 mm 0.00 in0.0 mm
01:37 AM 32.5°F0.3°C 29.3°F-1.5°C 88% Calm Calm -- 30.09 in1019.0 mb - 0.00 in0.0 mm 0.00 in0.0 mm
01:42 AM 32.5°F0.3°C 29.3°F-1.5°C 88% Calm Calm -- 30.09 in1019.0 mb - 0.00 in0.0 mm 0.00 in0.0 mm
01:47 AM 32.5°F0.3°C 29.3°F-1.5°C 88% Calm Calm -- 30.08 in1018.6 mb - 0.00 in0.0 mm 0.00 in0.0 mm
01:52 AM 33.1°F0.6°C 29.8°F-1.2°C 88% Calm Calm -- 30.08 in1018.6 mb - 0.00 in0.0 mm 0.00 in0.0 mm
01:57 AM 33.1°F0.6°C 29.8°F-1.2°C 88% Calm Calm -- 30.07 in1018.3 mb - 0.00 in0.0 mm 0.00 in0.0 mm
02:02 AM 32.9°F0.5°C 29.7°F-1.3°C 88% Calm Calm -- 30.07 in1018.3 mb - 0.00 in0.0 mm 0.00 in0.0 mm
02:07 AM 33.6°F0.9°C 30.2°F-1.0°C 87% Calm Calm -- 30.07 in1018.3 mb - 0.00 in0.0 mm 0.00 in0.0 mm
02:12 AM 33.4°F0.8°C 29.7°F-1.3°C 86% Calm Calm -- 30.08 in1018.6 mb - 0.00 in0.0 mm 0.00 in0.0 mm
02:17 AM 33.6°F0.9°C 29.8°F-1.2°C 86% Calm Calm -- 30.08 in1018.6 mb - 0.00 in0.0 mm 0.00 in0.0 mm
02:22 AM 33.4°F0.8°C 29.7°F-1.3°C 86% Calm Calm -- 30.08 in1018.6 mb - 0.00 in0.0 mm 0.00 in0.0 mm
02:27 AM 33.4°F0.8°C 29.7°F-1.3°C 86% Calm Calm -- 30.09 in1019.0 mb - 0.00 in0.0 mm 0.00 in0.0 mm
02:32 AM 33.6°F0.9°C 29.8°F-1.2°C 86% Calm Calm -- 30.09 in1019.0 mb - 0.00 in0.0 mm 0.00 in0.0 mm
02:37 AM 34.0°F1.1°C 30.0°F-1.1°C 85% Calm Calm -- 30.09 in1019.0 mb - 0.00 in0.0 mm 0.00 in0.0 mm
02:42 AM 33.8°F1.0°C 29.8°F-1.2°C 85% Calm Calm -- 30.09 in1019.0 mb - 0.00 in0.0 mm 0.00 in0.0 mm
02:47 AM 33.8°F1.0°C 29.8°F-1.2°C 85% Calm Calm -- 30.09 in1019.0 mb - 0.00 in0.0 mm 0.00 in0.0 mm
02:52 AM 34.0°F1.1°C 30.0°F-1.1°C 85% Calm Calm -- 30.09 in1019.0 mb - 0.00 in0.0 mm 0.00 in0.0 mm
02:57 AM 34.0°F1.1°C 30.0°F-1.1°C 85% Calm Calm -- 30.10 in1019.3 mb - 0.00 in0.0 mm 0.00 in0.0 mm
03:02 AM 34.2°F1.2°C 29.8°F-1.2°C 84% Calm Calm -- 30.09 in1019.0 mb - 0.00 in0.0 mm 0.00 in0.0 mm
03:07 AM 34.2°F1.2°C 29.8°F-1.2°C 84% Calm Calm -- 30.09 in1019.0 mb - 0.00 in0.0 mm 0.00 in0.0 mm
03:12 AM 33.6°F0.9°C 29.8°F-1.2°C 86% Calm Calm -- 30.09 in1019.0 mb - 0.00 in0.0 mm 0.00 in0.0 mm
03:17 AM 33.8°F1.0°C 30.0°F-1.1°C 86% Calm Calm -- 30.08 in1018.6 mb - 0.00 in0.0 mm 0.00 in0.0 mm
03:22 AM 34.2°F1.2°C 30.2°F-1.0°C 85% Calm Calm -- 30.08 in1018.6 mb - 0.00 in0.0 mm 0.00 in0.0 mm
03:27 AM 34.2°F1.2°C 30.2°F-1.0°C 85% Calm Calm -- 30.08 in1018.6 mb - 0.00 in0.0 mm 0.00 in0.0 mm
03:32 AM 34.2°F1.2°C 30.4°F-0.9°C 86% Calm Calm -- 30.07 in1018.3 mb - 0.00 in0.0 mm 0.00 in0.0 mm
03:37 AM 34.3°F1.3°C 30.4°F-0.9°C 85% Calm Calm -- 30.07 in1018.3 mb - 0.00 in0.0 mm 0.00 in0.0 mm
03:42 AM 34.5°F1.4°C 30.6°F-0.8°C 85% Calm Calm -- 30.06 in1017.9 mb - 0.00 in0.0 mm 0.00 in0.0 mm
03:47 AM 34.7°F1.5°C 30.4°F-0.9°C 84% Calm Calm -- 30.06 in1017.9 mb - 0.00 in0.0 mm 0.00 in0.0 mm
03:52 AM 34.7°F1.5°C 30.7°F-0.7°C 85% Calm Calm -- 30.06 in1017.9 mb - 0.00 in0.0 mm 0.00 in0.0 mm
03:57 AM 34.7°F1.5°C 30.4°F-0.9°C 84% Calm Calm -- 30.05 in1017.6 mb - 0.00 in0.0 mm 0.00 in0.0 mm
04:02 AM 34.9°F1.6°C 30.6°F-0.8°C 84% Calm Calm -- 30.05 in1017.6 mb - 0.00 in0.0 mm 0.00 in0.0 mm
04:07 AM 34.9°F1.6°C 30.6°F-0.8°C 84% 0.9 mph NNE1.4 kmh NNE 4.0 mph6.4 kmh 30.04 in1017.3 mb - 0.00 in0.0 mm 0.00 in0.0 mm
04:12 AM 35.1°F1.7°C 30.7°F-0.7°C 84% 2.9 mph 4.7 kmh 4.9 mph7.9 kmh 30.04 in1017.3 mb - 0.00 in0.0 mm 0.00 in0.0 mm
04:17 AM 35.1°F1.7°C 30.4°F-0.9°C 83% 2.0 mph N3.2 kmh N 2.9 mph4.7 kmh 30.04 in1017.3 mb - 0.00 in0.0 mm 0.00 in0.0 mm
04:22 AM 35.2°F1.8°C 30.6°F-0.8°C 83% 0.9 mph NNW1.4 kmh NNW -- 30.04 in1017.3 mb - 0.00 in0.0 mm 0.00 in0.0 mm
04:27 AM 35.2°F1.8°C 30.6°F-0.8°C 83% Calm Calm -- 30.04 in1017.3 mb - 0.00 in0.0 mm 0.00 in0.0 mm
04:32 AM 35.4°F1.9°C 30.6°F-0.8°C 82% Calm Calm -- 30.04 in1017.3 mb - 0.00 in0.0 mm 0.00 in0.0 mm
04:37 AM 35.4°F1.9°C 30.7°F-0.7°C 83% Calm Calm -- 30.04 in1017.3 mb - 0.00 in0.0 mm 0.00 in0.0 mm
04:42 AM 35.2°F1.8°C 30.9°F-0.6°C 84% Calm Calm -- 30.03 in1016.9 mb - 0.00 in0.0 mm 0.00 in0.0 mm
04:47 AM 35.2°F1.8°C 30.9°F-0.6°C 84% Calm Calm -- 30.02 in1016.6 mb - 0.00 in0.0 mm 0.00 in0.0 mm
04:52 AM 35.2°F1.8°C 30.9°F-0.6°C 84% Calm Calm -- 30.02 in1016.6 mb - 0.00 in0.0 mm 0.00 in0.0 mm
04:57 AM 35.2°F1.8°C 30.9°F-0.6°C 84% Calm Calm 2.0 mph3.2 kmh 30.02 in1016.6 mb - 0.00 in0.0 mm 0.00 in0.0 mm
05:02 AM 35.4°F1.9°C 31.1°F-0.5°C 84% 0.9 mph N1.4 kmh N 0.9 mph1.4 kmh 30.02 in1016.6 mb - 0.00 in0.0 mm 0.00 in0.0 mm
05:07 AM 35.8°F2.1°C 31.1°F-0.5°C 83% 0.9 mph N1.4 kmh N -- 30.02 in1016.6 mb - 0.00 in0.0 mm 0.00 in0.0 mm
05:12 AM 35.8°F2.1°C 31.1°F-0.5°C 83% 0.9 mph ESE1.4 kmh ESE -- 30.01 in1016.3 mb - 0.00 in0.0 mm 0.00 in0.0 mm
05:17 AM 35.6°F2.0°C 30.9°F-0.6°C 83% Calm Calm -- 30.01 in1016.3 mb - 0.00 in0.0 mm 0.00 in0.0 mm
05:22 AM 36.0°F2.2°C 30.9°F-0.6°C 82% Calm Calm 2.9 mph4.7 kmh 30.01 in1016.3 mb - 0.00 in0.0 mm 0.00 in0.0 mm
05:27 AM 36.1°F2.3°C 31.5°F-0.3°C 83% 0.9 mph N1.4 kmh N -- 30.00 in1015.9 mb - 0.00 in0.0 mm 0.00 in0.0 mm
05:32 AM 36.3°F2.4°C 31.6°F-0.2°C 83% 2.0 mph N3.2 kmh N 2.0 mph3.2 kmh 29.99 in1015.6 mb - 0.00 in0.0 mm 0.00 in0.0 mm
05:37 AM 36.3°F2.4°C 32.0°F0.0°C 84% 0.9 mph NNE1.4 kmh NNE -- 29.98 in1015.2 mb - 0.00 in0.0 mm 0.00 in0.0 mm
05:42 AM 36.3°F2.4°C 32.0°F0.0°C 84% Calm Calm -- 29.98 in1015.2 mb - 0.00 in0.0 mm 0.00 in0.0 mm
05:47 AM 36.3°F2.4°C 32.0°F0.0°C 84% Calm Calm -- 29.98 in1015.2 mb - 0.00 in0.0 mm 0.00 in0.0 mm
05:52 AM 36.3°F2.4°C 32.0°F0.0°C 84% Calm Calm -- 29.97 in1014.9 mb - 0.00 in0.0 mm 0.00 in0.0 mm
05:57 AM 36.3°F2.4°C 32.2°F0.1°C 85% Calm Calm -- 29.97 in1014.9 mb - 0.00 in0.0 mm 0.00 in0.0 mm
06:02 AM 36.1°F2.3°C 32.0°F0.0°C 85% Calm Calm -- 29.97 in1014.9 mb - 0.00 in0.0 mm 0.00 in0.0 mm
06:07 AM 36.1°F2.3°C 32.0°F0.0°C 85% Calm Calm -- 29.97 in1014.9 mb - 0.00 in0.0 mm 0.00 in0.0 mm
06:12 AM 36.3°F2.4°C 32.2°F0.1°C 85% Calm Calm -- 29.97 in1014.9 mb - 0.00 in0.0 mm 0.00 in0.0 mm
06:17 AM 36.7°F2.6°C 32.5°F0.3°C 85% Calm Calm -- 29.97 in1014.9 mb - 0.00 in0.0 mm 0.00 in0.0 mm
06:22 AM 36.9°F2.7°C 33.1°F0.6°C 86% Calm Calm -- 29.97 in1014.9 mb - 0.00 in0.0 mm 0.00 in0.0 mm
06:27 AM 37.2°F2.9°C 33.8°F1.0°C 87% Calm Calm -- 29.97 in1014.9 mb - 0.00 in0.0 mm 0.00 in0.0 mm
06:32 AM 37.6°F3.1°C 33.8°F1.0°C 86% Calm Calm -- 29.96 in1014.6 mb - 0.00 in0.0 mm 0.00 in0.0 mm
06:37 AM 37.4°F3.0°C 33.8°F1.0°C 87% Calm Calm -- 29.96 in1014.6 mb - 0.00 in0.0 mm 0.00 in0.0 mm
06:42 AM 37.9°F3.3°C 34.3°F1.3°C 87% Calm Calm -- 29.97 in1014.9 mb - 0.00 in0.0 mm 0.00 in0.0 mm
06:47 AM 38.5°F3.6°C 34.7°F1.5°C 86% Calm Calm -- 29.97 in1014.9 mb - 0.00 in0.0 mm 0.00 in0.0 mm
06:52 AM 38.8°F3.8°C 35.1°F1.7°C 86% 0.9 mph NNW1.4 kmh NNW 0.9 mph1.4 kmh 29.96 in1014.6 mb - 0.00 in0.0 mm 0.00 in0.0 mm
06:57 AM 39.0°F3.9°C 34.9°F1.6°C 85% 2.0 mph SSE3.2 kmh SSE 2.9 mph4.7 kmh 29.97 in1014.9 mb - 0.00 in0.0 mm 0.00 in0.0 mm
07:02 AM 38.3°F3.5°C 34.2°F1.2°C 85% 2.0 mph SE3.2 kmh SE -- 29.97 in1014.9 mb - 0.00 in0.0 mm 0.00 in0.0 mm
07:07 AM 38.1°F3.4°C 34.0°F1.1°C 85% 0.9 mph WNW1.4 kmh WNW -- 29.97 in1014.9 mb - 0.00 in0.0 mm 0.00 in0.0 mm
07:12 AM 37.6°F3.1°C 33.4°F0.8°C 85% Calm Calm -- 29.98 in1015.2 mb - 0.00 in0.0 mm 0.00 in0.0 mm
07:17 AM 37.2°F2.9°C 33.1°F0.6°C 85% Calm Calm -- 29.98 in1015.2 mb - 0.00 in0.0 mm 0.00 in0.0 mm
07:22 AM 36.7°F2.6°C 32.9°F0.5°C 86% Calm Calm -- 29.99 in1015.6 mb - 0.00 in0.0 mm 0.00 in0.0 mm
07:27 AM 36.1°F2.3°C 32.4°F0.2°C 86% Calm Calm -- 29.99 in1015.6 mb - 0.00 in0.0 mm 0.00 in0.0 mm
07:32 AM 36.0°F2.2°C 31.8°F-0.1°C 85% Calm Calm -- 29.99 in1015.6 mb - 0.00 in0.0 mm 0.00 in0.0 mm
07:37 AM 36.0°F2.2°C 32.2°F0.1°C 86% Calm Calm -- 29.99 in1015.6 mb - 0.00 in0.0 mm 0.00 in0.0 mm
07:42 AM 35.8°F2.1°C 32.4°F0.2°C 87% Calm Calm -- 29.99 in1015.6 mb - 0.00 in0.0 mm 0.00 in0.0 mm
07:47 AM 35.8°F2.1°C 32.4°F0.2°C 87% Calm Calm -- 29.98 in1015.2 mb - 0.00 in0.0 mm 0.00 in0.0 mm
07:52 AM 36.0°F2.2°C 32.7°F0.4°C 88% Calm Calm -- 29.98 in1015.2 mb - 0.00 in0.0 mm 0.00 in0.0 mm
07:57 AM 36.0°F2.2°C 33.1°F0.6°C 89% Calm Calm -- 29.98 in1015.2 mb - 0.00 in0.0 mm 0.00 in0.0 mm
08:02 AM 36.7°F2.6°C 34.0°F1.1°C 90% 0.9 mph NW1.4 kmh NW -- 29.97 in1014.9 mb - 0.00 in0.0 mm 0.00 in0.0 mm
08:07 AM 36.9°F2.7°C 34.2°F1.2°C 90% Calm Calm -- 29.97 in1014.9 mb - 0.00 in0.0 mm 0.00 in0.0 mm
08:12 AM 36.9°F2.7°C 34.2°F1.2°C 90% Calm Calm -- 29.97 in1014.9 mb - 0.00 in0.0 mm 0.00 in0.0 mm
08:17 AM 36.9°F2.7°C 34.0°F1.1°C 89% Calm Calm -- 29.97 in1014.9 mb - 0.00 in0.0 mm 0.00 in0.0 mm
08:22 AM 37.0°F2.8°C 34.2°F1.2°C 89% Calm Calm -- 29.98 in1015.2 mb - 0.00 in0.0 mm 0.00 in0.0 mm
08:27 AM 37.0°F2.8°C 34.2°F1.2°C 89% Calm Calm -- 29.98 in1015.2 mb - 0.00 in0.0 mm 0.00 in0.0 mm
08:32 AM 36.7°F2.6°C 33.8°F1.0°C 89% Calm Calm -- 29.98 in1015.2 mb - 0.00 in0.0 mm 0.00 in0.0 mm
08:37 AM 36.7°F2.6°C 33.8°F1.0°C 89% Calm Calm -- 29.98 in1015.2 mb - 0.00 in0.0 mm 0.00 in0.0 mm
08:42 AM 36.5°F2.5°C 33.8°F1.0°C 90% Calm Calm -- 29.98 in1015.2 mb - 0.00 in0.0 mm 0.00 in0.0 mm
08:47 AM 36.7°F2.6°C 34.0°F1.1°C 90% Calm Calm -- 29.98 in1015.2 mb - 0.00 in0.0 mm 0.00 in0.0 mm
08:52 AM 36.9°F2.7°C 34.2°F1.2°C 90% Calm Calm -- 29.98 in1015.2 mb - 0.00 in0.0 mm 0.00 in0.0 mm
08:57 AM 37.0°F2.8°C 34.3°F1.3°C 90% Calm Calm -- 29.98 in1015.2 mb - 0.00 in0.0 mm 0.00 in0.0 mm
09:02 AM 37.6°F3.1°C 34.9°F1.6°C 90% Calm Calm -- 29.97 in1014.9 mb - 0.00 in0.0 mm 0.00 in0.0 mm
09:07 AM 37.6°F3.1°C 34.9°F1.6°C 90% Calm Calm -- 29.97 in1014.9 mb - 0.00 in0.0 mm 0.00 in0.0 mm
09:12 AM 37.6°F3.1°C 34.9°F1.6°C 90% Calm Calm -- 29.98 in1015.2 mb - 0.00 in0.0 mm 0.00 in0.0 mm
09:17 AM 37.2°F2.9°C 34.5°F1.4°C 90% Calm Calm -- 29.98 in1015.2 mb - 0.00 in0.0 mm 0.00 in0.0 mm
09:22 AM 36.9°F2.7°C 34.2°F1.2°C 90% Calm Calm -- 29.97 in1014.9 mb - 0.00 in0.0 mm 0.00 in0.0 mm
09:27 AM 37.0°F2.8°C 34.7°F1.5°C 91% Calm Calm 6.0 mph9.7 kmh 29.97 in1014.9 mb - 0.00 in0.0 mm 0.00 in0.0 mm
09:32 AM 37.8°F3.2°C 35.4°F1.9°C 91% 2.0 mph N3.2 kmh N -- 29.96 in1014.6 mb - 0.00 in0.0 mm 0.00 in0.0 mm
09:37 AM 38.5°F3.6°C 36.1°F2.3°C 91% 2.9 mph NW4.7 kmh NW 2.9 mph4.7 kmh 29.96 in1014.6 mb - 0.00 in0.0 mm 0.00 in0.0 mm
09:42 AM 39.0°F3.9°C 36.3°F2.4°C 90% 0.9 mph SE1.4 kmh SE -- 29.96 in1014.6 mb - 0.00 in0.0 mm 0.00 in0.0 mm
09:47 AM 39.0°F3.9°C 36.3°F2.4°C 90% Calm Calm -- 29.97 in1014.9 mb - 0.00 in0.0 mm 0.00 in0.0 mm
09:52 AM 38.7°F3.7°C 35.8°F2.1°C 89% Calm Calm -- 29.96 in1014.6 mb - 0.00 in0.0 mm 0.00 in0.0 mm
09:57 AM 38.5°F3.6°C 35.8°F2.1°C 90% Calm Calm -- 29.96 in1014.6 mb - 0.00 in0.0 mm 0.00 in0.0 mm
10:02 AM 38.1°F3.4°C 35.4°F1.9°C 90% Calm Calm -- 29.97 in1014.9 mb - 0.00 in0.0 mm 0.00 in0.0 mm
10:07 AM 37.9°F3.3°C 35.1°F1.7°C 89% Calm Calm -- 29.98 in1015.2 mb - 0.00 in0.0 mm 0.00 in0.0 mm
10:12 AM 37.9°F3.3°C 35.1°F1.7°C 89% Calm Calm -- 29.98 in1015.2 mb - 0.00 in0.0 mm 0.00 in0.0 mm
10:17 AM 37.8°F3.2°C 34.5°F1.4°C 88% Calm Calm -- 29.99 in1015.6 mb - 0.00 in0.0 mm 0.00 in0.0 mm
10:22 AM 37.9°F3.3°C 34.7°F1.5°C 88% Calm Calm -- 29.98 in1015.2 mb - 0.00 in0.0 mm 0.00 in0.0 mm
10:27 AM 37.9°F3.3°C 34.7°F1.5°C 88% Calm Calm -- 29.99 in1015.6 mb - 0.00 in0.0 mm 0.00 in0.0 mm
10:32 AM 37.0°F2.8°C 33.8°F1.0°C 88% Calm Calm -- 29.99 in1015.6 mb - 0.00 in0.0 mm 0.00 in0.0 mm
10:37 AM 36.7°F2.6°C 33.4°F0.8°C 88% 0.9 mph SE1.4 kmh SE 2.0 mph3.2 kmh 30.00 in1015.9 mb - 0.00 in0.0 mm 0.00 in0.0 mm
10:42 AM 36.3°F2.4°C 33.1°F0.6°C 88% 0.9 mph ESE1.4 kmh ESE -- 30.00 in1015.9 mb - 0.00 in0.0 mm 0.00 in0.0 mm
10:47 AM 36.1°F2.3°C 32.7°F0.4°C 87% Calm Calm -- 30.00 in1015.9 mb - 0.00 in0.0 mm 0.00 in0.0 mm
10:52 AM 36.3°F2.4°C 33.1°F0.6°C 88% Calm Calm -- 29.99 in1015.6 mb - 0.00 in0.0 mm 0.00 in0.0 mm
10:57 AM 36.5°F2.5°C 33.1°F0.6°C 87% Calm Calm -- 29.99 in1015.6 mb - 0.00 in0.0 mm 0.00 in0.0 mm
11:02 AM 36.5°F2.5°C 33.1°F0.6°C 87% Calm Calm -- 30.00 in1015.9 mb - 0.00 in0.0 mm 0.00 in0.0 mm
11:07 AM 36.5°F2.5°C 33.1°F0.6°C 87% Calm Calm -- 30.00 in1015.9 mb - 0.00 in0.0 mm 0.00 in0.0 mm
11:12 AM 36.3°F2.4°C 32.9°F0.5°C 87% Calm Calm -- 30.00 in1015.9 mb - 0.00 in0.0 mm 0.00 in0.0 mm
11:17 AM 36.0°F2.2°C 32.5°F0.3°C 87% Calm Calm -- 30.00 in1015.9 mb - 0.00 in0.0 mm 0.00 in0.0 mm
11:22 AM 35.8°F2.1°C 32.4°F0.2°C 87% Calm Calm -- 30.00 in1015.9 mb - 0.00 in0.0 mm 0.00 in0.0 mm
11:27 AM 35.2°F1.8°C 31.8°F-0.1°C 87% Calm Calm -- 30.00 in1015.9 mb - 0.00 in0.0 mm 0.00 in0.0 mm
11:32 AM 35.4°F1.9°C 32.2°F0.1°C 88% Calm Calm 4.0 mph6.4 kmh 30.01 in1016.3 mb - 0.00 in0.0 mm 0.00 in0.0 mm
11:37 AM 35.8°F2.1°C 32.4°F0.2°C 87% 0.9 mph SE1.4 kmh SE -- 30.01 in1016.3 mb - 0.00 in0.0 mm 0.00 in0.0 mm
11:42 AM 35.4°F1.9°C 32.0°F0.0°C 87% Calm Calm -- 30.02 in1016.6 mb - 0.00 in0.0 mm 0.00 in0.0 mm
11:47 AM 35.6°F2.0°C 32.2°F0.1°C 87% Calm Calm -- 30.03 in1016.9 mb - 0.00 in0.0 mm 0.00 in0.0 mm
11:52 AM 35.4°F1.9°C 32.0°F0.0°C 87% Calm Calm 2.0 mph3.2 kmh 30.03 in1016.9 mb - 0.00 in0.0 mm 0.00 in0.0 mm
11:57 AM 35.2°F1.8°C 31.8°F-0.1°C 87% Calm Calm -- 30.03 in1016.9 mb - 0.00 in0.0 mm 0.00 in0.0 mm
12:02 PM 35.2°F1.8°C 31.8°F-0.1°C 87% Calm Calm -- 30.03 in1016.9 mb - 0.00 in0.0 mm 0.00 in0.0 mm
12:07 PM 35.4°F1.9°C 32.0°F0.0°C 87% Calm Calm 2.9 mph4.7 kmh 30.03 in1016.9 mb - 0.00 in0.0 mm 0.00 in0.0 mm
12:12 PM 35.4°F1.9°C 32.0°F0.0°C 87% 0.9 mph SSW1.4 kmh SSW -- 30.03 in1016.9 mb - 0.00 in0.0 mm 0.00 in0.0 mm
12:17 PM 35.4°F1.9°C 32.0°F0.0°C 87% Calm Calm -- 30.03 in1016.9 mb - 0.00 in0.0 mm 0.00 in0.0 mm
12:22 PM 35.4°F1.9°C 32.0°F0.0°C 87% Calm Calm -- 30.02 in1016.6 mb - 0.00 in0.0 mm 0.00 in0.0 mm
12:27 PM 35.8°F2.1°C 32.4°F0.2°C 87% Calm Calm -- 30.02 in1016.6 mb - 0.00 in0.0 mm 0.00 in0.0 mm
12:32 PM 36.0°F2.2°C 32.5°F0.3°C 87% Calm Calm -- 30.03 in1016.9 mb - 0.00 in0.0 mm 0.00 in0.0 mm
12:37 PM 36.1°F2.3°C 32.4°F0.2°C 86% Calm Calm -- 30.03 in1016.9 mb - 0.00 in0.0 mm 0.00 in0.0 mm
12:42 PM 36.1°F2.3°C 32.4°F0.2°C 86% Calm Calm -- 30.02 in1016.6 mb - 0.00 in0.0 mm 0.00 in0.0 mm
12:47 PM 36.1°F2.3°C 32.0°F0.0°C 85% Calm Calm -- 30.02 in1016.6 mb - 0.00 in0.0 mm 0.00 in0.0 mm
12:52 PM 36.3°F2.4°C 32.5°F0.3°C 86% Calm Calm -- 30.01 in1016.3 mb - 0.00 in0.0 mm 0.00 in0.0 mm
12:57 PM 36.3°F2.4°C 32.2°F0.1°C 85% Calm Calm -- 30.01 in1016.3 mb - 0.00 in0.0 mm 0.00 in0.0 mm
01:02 PM 36.9°F2.7°C 33.1°F0.6°C 86% Calm Calm -- 30.00 in1015.9 mb - 0.00 in0.0 mm 0.00 in0.0 mm
01:07 PM 37.4°F3.0°C 33.3°F0.7°C 85% Calm Calm -- 30.00 in1015.9 mb - 0.00 in0.0 mm 0.00 in0.0 mm
01:12 PM 38.8°F3.8°C 34.3°F1.3°C 84% Calm Calm -- 30.00 in1015.9 mb - 0.00 in0.0 mm 0.00 in0.0 mm
01:17 PM 38.8°F3.8°C 34.2°F1.2°C 83% Calm Calm -- 30.00 in1015.9 mb - 0.00 in0.0 mm 0.00 in0.0 mm
01:22 PM 37.9°F3.3°C 32.9°F0.5°C 82% Calm Calm -- 30.00 in1015.9 mb - 0.00 in0.0 mm 0.00 in0.0 mm
01:27 PM 37.8°F3.2°C 33.1°F0.6°C 83% Calm Calm -- 30.00 in1015.9 mb - 0.00 in0.0 mm 0.00 in0.0 mm
01:32 PM 38.3°F3.5°C 33.6°F0.9°C 83% Calm Calm -- 30.01 in1016.3 mb - 0.00 in0.0 mm 0.00 in0.0 mm
01:37 PM 38.1°F3.4°C 33.1°F0.6°C 82% Calm Calm -- 30.01 in1016.3 mb - 0.00 in0.0 mm 0.00 in0.0 mm
01:42 PM 37.9°F3.3°C 33.3°F0.7°C 83% Calm Calm -- 30.01 in1016.3 mb - 0.00 in0.0 mm 0.00 in0.0 mm
01:47 PM 38.1°F3.4°C 33.4°F0.8°C 83% 0.9 mph S1.4 kmh S 4.0 mph6.4 kmh 30.01 in1016.3 mb - 0.00 in0.0 mm 0.00 in0.0 mm
01:52 PM 37.8°F3.2°C 32.7°F0.4°C 82% 0.9 mph S1.4 kmh S -- 30.02 in1016.6 mb - 0.00 in0.0 mm 0.00 in0.0 mm
01:57 PM 37.8°F3.2°C 33.1°F0.6°C 83% 0.9 mph ESE1.4 kmh ESE -- 30.01 in1016.3 mb - 0.00 in0.0 mm 0.00 in0.0 mm
02:02 PM 37.8°F3.2°C 33.1°F0.6°C 83% Calm Calm -- 30.01 in1016.3 mb - 0.00 in0.0 mm 0.00 in0.0 mm
02:07 PM 37.8°F3.2°C 33.1°F0.6°C 83% Calm Calm -- 30.01 in1016.3 mb - 0.00 in0.0 mm 0.00 in0.0 mm
02:12 PM 37.8°F3.2°C 33.4°F0.8°C 84% Calm Calm -- 30.01 in1016.3 mb - 0.00 in0.0 mm 0.00 in0.0 mm
02:17 PM 37.4°F3.0°C 32.7°F0.4°C 83% Calm Calm -- 30.01 in1016.3 mb - 0.00 in0.0 mm 0.00 in0.0 mm
02:22 PM 37.6°F3.1°C 33.3°F0.7°C 84% Calm Calm -- 30.01 in1016.3 mb - 0.00 in0.0 mm 0.00 in0.0 mm
02:27 PM 37.8°F3.2°C 33.1°F0.6°C 83% Calm Calm -- 30.01 in1016.3 mb - 0.00 in0.0 mm 0.00 in0.0 mm
02:32 PM 37.8°F3.2°C 33.4°F0.8°C 84% Calm Calm -- 30.01 in1016.3 mb - 0.00 in0.0 mm 0.00 in0.0 mm
02:37 PM 37.4°F3.0°C 33.1°F0.6°C 84% Calm Calm -- 30.01 in1016.3 mb - 0.00 in0.0 mm 0.00 in0.0 mm
02:42 PM 37.0°F2.8°C 32.7°F0.4°C 84% Calm Calm -- 30.01 in1016.3 mb - 0.00 in0.0 mm 0.00 in0.0 mm
02:47 PM 37.0°F2.8°C 32.9°F0.5°C 85% Calm Calm -- 30.01 in1016.3 mb - 0.00 in0.0 mm 0.00 in0.0 mm
02:52 PM 37.0°F2.8°C 32.9°F0.5°C 85% Calm Calm -- 30.01 in1016.3 mb - 0.00 in0.0 mm 0.00 in0.0 mm
02:57 PM 37.0°F2.8°C 32.9°F0.5°C 85% Calm Calm -- 30.02 in1016.6 mb - 0.00 in0.0 mm 0.00 in0.0 mm
03:02 PM 37.0°F2.8°C 32.9°F0.5°C 85% Calm Calm -- 30.02 in1016.6 mb - 0.00 in0.0 mm 0.00 in0.0 mm
03:07 PM 37.0°F2.8°C 32.9°F0.5°C 85% Calm Calm -- 30.02 in1016.6 mb - 0.00 in0.0 mm 0.00 in0.0 mm
03:12 PM 37.0°F2.8°C 32.9°F0.5°C 85% Calm Calm -- 30.02 in1016.6 mb - 0.00 in0.0 mm 0.00 in0.0 mm
03:17 PM 37.0°F2.8°C 32.9°F0.5°C 85% Calm Calm -- 30.02 in1016.6 mb - 0.00 in0.0 mm 0.00 in0.0 mm
03:22 PM 37.0°F2.8°C 32.9°F0.5°C 85% Calm Calm -- 30.02 in1016.6 mb - 0.00 in0.0 mm 0.00 in0.0 mm
03:27 PM 37.0°F2.8°C 33.3°F0.7°C 86% Calm Calm -- 30.02 in1016.6 mb - 0.00 in0.0 mm 0.00 in0.0 mm
03:32 PM 37.0°F2.8°C 33.3°F0.7°C 86% Calm Calm -- 30.01 in1016.3 mb - 0.00 in0.0 mm 0.00 in0.0 mm
03:37 PM 37.0°F2.8°C 33.3°F0.7°C 86% Calm Calm -- 30.01 in1016.3 mb - 0.00 in0.0 mm 0.00 in0.0 mm
03:42 PM 37.0°F2.8°C 33.3°F0.7°C 86% Calm Calm -- 30.01 in1016.3 mb - 0.00 in0.0 mm 0.00 in0.0 mm
03:47 PM 37.0°F2.8°C 33.3°F0.7°C 86% Calm Calm -- 30.02 in1016.6 mb - 0.00 in0.0 mm 0.00 in0.0 mm
03:52 PM 37.0°F2.8°C 32.9°F0.5°C 85% Calm Calm -- 30.01 in1016.3 mb - 0.00 in0.0 mm 0.00 in0.0 mm
03:57 PM 37.2°F2.9°C 33.1°F0.6°C 85% Calm Calm -- 30.01 in1016.3 mb - 0.00 in0.0 mm 0.00 in0.0 mm
04:02 PM 37.2°F2.9°C 33.1°F0.6°C 85% Calm Calm -- 30.01 in1016.3 mb - 0.00 in0.0 mm 0.00 in0.0 mm
04:07 PM 37.2°F2.9°C 33.1°F0.6°C 85% Calm Calm -- 30.02 in1016.6 mb - 0.00 in0.0 mm 0.00 in0.0 mm
04:12 PM 37.2°F2.9°C 33.1°F0.6°C 85% Calm Calm -- 30.02 in1016.6 mb - 0.00 in0.0 mm 0.00 in0.0 mm
04:17 PM 37.2°F2.9°C 33.1°F0.6°C 85% Calm Calm -- 30.02 in1016.6 mb - 0.00 in0.0 mm 0.00 in0.0 mm
04:22 PM 37.2°F2.9°C 33.1°F0.6°C 85% Calm Calm -- 30.02 in1016.6 mb - 0.00 in0.0 mm 0.00 in0.0 mm
04:27 PM 37.2°F2.9°C 33.4°F0.8°C 86% Calm Calm -- 30.02 in1016.6 mb - 0.00 in0.0 mm 0.00 in0.0 mm
04:32 PM 37.2°F2.9°C 33.4°F0.8°C 86% Calm Calm -- 30.02 in1016.6 mb - 0.00 in0.0 mm 0.00 in0.0 mm
04:37 PM 37.0°F2.8°C 33.3°F0.7°C 86% Calm Calm -- 30.02 in1016.6 mb - 0.00 in0.0 mm 0.00 in0.0 mm
04:42 PM 37.0°F2.8°C 33.3°F0.7°C 86% Calm Calm -- 30.02 in1016.6 mb - 0.00 in0.0 mm 0.00 in0.0 mm
04:47 PM 36.9°F2.7°C 33.1°F0.6°C 86% Calm Calm -- 30.02 in1016.6 mb - 0.00 in0.0 mm 0.00 in0.0 mm
04:52 PM 36.9°F2.7°C 33.4°F0.8°C 87% Calm Calm -- 30.02 in1016.6 mb - 0.00 in0.0 mm 0.00 in0.0 mm
04:57 PM 36.9°F2.7°C 33.4°F0.8°C 87% Calm Calm -- 30.02 in1016.6 mb - 0.00 in0.0 mm 0.00 in0.0 mm
05:02 PM 37.0°F2.8°C 33.6°F0.9°C 87% Calm Calm -- 30.02 in1016.6 mb - 0.00 in0.0 mm 0.00 in0.0 mm
05:07 PM 36.9°F2.7°C 33.6°F0.9°C 88% Calm Calm -- 30.03 in1016.9 mb - 0.00 in0.0 mm 0.00 in0.0 mm
05:12 PM 36.9°F2.7°C 33.6°F0.9°C 88% Calm Calm -- 30.03 in1016.9 mb - 0.00 in0.0 mm 0.00 in0.0 mm
05:17 PM 36.9°F2.7°C 34.0°F1.1°C 89% Calm Calm -- 30.02 in1016.6 mb - 0.00 in0.0 mm 0.00 in0.0 mm
05:22 PM 36.7°F2.6°C 33.8°F1.0°C 89% Calm Calm -- 30.02 in1016.6 mb - 0.00 in0.0 mm 0.00 in0.0 mm
05:27 PM 36.3°F2.4°C 33.6°F0.9°C 90% Calm Calm -- 30.02 in1016.6 mb - 0.00 in0.0 mm 0.00 in0.0 mm
05:32 PM 36.3°F2.4°C 34.0°F1.1°C 91% Calm Calm -- 30.02 in1016.6 mb - 0.00 in0.0 mm 0.00 in0.0 mm
05:37 PM 36.1°F2.3°C 33.8°F1.0°C 91% Calm Calm -- 30.02 in1016.6 mb - 0.00 in0.0 mm 0.00 in0.0 mm
05:42 PM 36.1°F2.3°C 33.8°F1.0°C 91% Calm Calm -- 30.02 in1016.6 mb - 0.00 in0.0 mm 0.00 in0.0 mm
05:47 PM 36.1°F2.3°C 34.0°F1.1°C 92% Calm Calm -- 30.02 in1016.6 mb - 0.00 in0.0 mm 0.00 in0.0 mm
05:52 PM 36.1°F2.3°C 34.0°F1.1°C 92% Calm Calm -- 30.03 in1016.9 mb - 0.00 in0.0 mm 0.00 in0.0 mm
05:57 PM 36.1°F2.3°C 34.0°F1.1°C 92% Calm Calm -- 30.03 in1016.9 mb - 0.00 in0.0 mm 0.00 in0.0 mm
06:02 PM 36.1°F2.3°C 34.0°F1.1°C 92% Calm Calm -- 30.02 in1016.6 mb - 0.00 in0.0 mm 0.00 in0.0 mm
06:07 PM 36.0°F2.2°C 33.8°F1.0°C 92% Calm Calm -- 30.03 in1016.9 mb - 0.00 in0.0 mm 0.00 in0.0 mm
06:12 PM 36.0°F2.2°C 34.2°F1.2°C 93% Calm Calm -- 30.03 in1016.9 mb - 0.00 in0.0 mm 0.00 in0.0 mm
06:17 PM 35.8°F2.1°C 34.0°F1.1°C 93% Calm Calm -- 30.04 in1017.3 mb - 0.00 in0.0 mm 0.00 in0.0 mm
06:22 PM 36.0°F2.2°C 34.2°F1.2°C 93% Calm Calm -- 30.04 in1017.3 mb - 0.00 in0.0 mm 0.00 in0.0 mm
06:27 PM 35.6°F2.0°C 33.8°F1.0°C 93% Calm Calm -- 30.04 in1017.3 mb - 0.00 in0.0 mm 0.00 in0.0 mm
06:32 PM 35.2°F1.8°C 33.4°F0.8°C 93% Calm Calm -- 30.04 in1017.3 mb - 0.00 in0.0 mm 0.00 in0.0 mm
06:37 PM 35.2°F1.8°C 33.4°F0.8°C 93% Calm Calm -- 30.04 in1017.3 mb - 0.00 in0.0 mm 0.00 in0.0 mm
06:42 PM 35.1°F1.7°C 33.4°F0.8°C 94% Calm Calm -- 30.04 in1017.3 mb - 0.00 in0.0 mm 0.00 in0.0 mm
06:47 PM 35.1°F1.7°C 33.4°F0.8°C 94% Calm Calm -- 30.04 in1017.3 mb - 0.00 in0.0 mm 0.00 in0.0 mm
06:52 PM 35.1°F1.7°C 33.4°F0.8°C 94% Calm Calm -- 30.04 in1017.3 mb - 0.00 in0.0 mm 0.00 in0.0 mm
06:57 PM 34.9°F1.6°C 33.3°F0.7°C 94% Calm Calm -- 30.04 in1017.3 mb - 0.00 in0.0 mm 0.00 in0.0 mm
07:02 PM 34.9°F1.6°C 33.3°F0.7°C 94% Calm Calm -- 30.04 in1017.3 mb - 0.00 in0.0 mm 0.00 in0.0 mm
07:07 PM 35.1°F1.7°C 33.4°F0.8°C 94% Calm Calm -- 30.04 in1017.3 mb - 0.00 in0.0 mm 0.00 in0.0 mm
07:12 PM 35.1°F1.7°C 33.4°F0.8°C 94% Calm Calm -- 30.05 in1017.6 mb - 0.00 in0.0 mm 0.00 in0.0 mm
07:17 PM 35.2°F1.8°C 33.6°F0.9°C 94% Calm Calm -- 30.04 in1017.3 mb - 0.00 in0.0 mm 0.00 in0.0 mm
07:22 PM 35.1°F1.7°C 33.4°F0.8°C 94% Calm Calm -- 30.05 in1017.6 mb - 0.00 in0.0 mm 0.00 in0.0 mm
07:27 PM 34.9°F1.6°C 33.3°F0.7°C 94% Calm Calm -- 30.05 in1017.6 mb - 0.00 in0.0 mm 0.00 in0.0 mm
07:32 PM 34.9°F1.6°C 33.3°F0.7°C 94% Calm Calm -- 30.04 in1017.3 mb - 0.00 in0.0 mm 0.00 in0.0 mm
07:37 PM 34.7°F1.5°C 33.1°F0.6°C 94% Calm Calm -- 30.04 in1017.3 mb - 0.00 in0.0 mm 0.00 in0.0 mm
07:42 PM 34.5°F1.4°C 32.9°F0.5°C 94% Calm Calm -- 30.05 in1017.6 mb - 0.00 in0.0 mm 0.00 in0.0 mm
07:47 PM 34.5°F1.4°C 32.9°F0.5°C 94% Calm Calm -- 30.05 in1017.6 mb - 0.00 in0.0 mm 0.00 in0.0 mm
07:52 PM 34.3°F1.3°C 32.7°F0.4°C 94% Calm Calm -- 30.05 in1017.6 mb - 0.00 in0.0 mm 0.00 in0.0 mm
07:57 PM 34.3°F1.3°C 33.1°F0.6°C 95% Calm Calm -- 30.05 in1017.6 mb - 0.00 in0.0 mm 0.00 in0.0 mm
08:02 PM 34.3°F1.3°C 33.1°F0.6°C 95% Calm Calm -- 30.05 in1017.6 mb - 0.00 in0.0 mm 0.00 in0.0 mm
08:07 PM 34.5°F1.4°C 33.3°F0.7°C 95% Calm Calm -- 30.04 in1017.3 mb - 0.00 in0.0 mm 0.00 in0.0 mm
08:12 PM 34.9°F1.6°C 33.6°F0.9°C 95% Calm Calm -- 30.04 in1017.3 mb - 0.00 in0.0 mm 0.00 in0.0 mm
08:17 PM 35.1°F1.7°C 33.8°F1.0°C 95% Calm Calm -- 30.04 in1017.3 mb - 0.00 in0.0 mm 0.00 in0.0 mm
08:22 PM 35.2°F1.8°C 34.0°F1.1°C 95% Calm Calm -- 30.03 in1016.9 mb - 0.00 in0.0 mm 0.00 in0.0 mm
08:27 PM 35.2°F1.8°C 34.0°F1.1°C 95% Calm Calm 2.9 mph4.7 kmh 30.04 in1017.3 mb - 0.00 in0.0 mm 0.00 in0.0 mm
08:32 PM 35.4°F1.9°C 34.2°F1.2°C 95% Calm Calm -- 30.03 in1016.9 mb - 0.00 in0.0 mm 0.00 in0.0 mm
08:37 PM 35.6°F2.0°C 34.3°F1.3°C 95% Calm Calm -- 30.03 in1016.9 mb - 0.00 in0.0 mm 0.00 in0.0 mm
08:42 PM 35.2°F1.8°C 33.6°F0.9°C 94% Calm Calm -- 30.04 in1017.3 mb - 0.00 in0.0 mm 0.00 in0.0 mm
08:47 PM 35.1°F1.7°C 33.8°F1.0°C 95% Calm Calm -- 30.04 in1017.3 mb - 0.00 in0.0 mm 0.00 in0.0 mm
08:52 PM 35.1°F1.7°C 33.8°F1.0°C 95% Calm Calm -- 30.04 in1017.3 mb - 0.00 in0.0 mm 0.00 in0.0 mm
08:57 PM 34.9°F1.6°C 33.6°F0.9°C 95% Calm Calm -- 30.04 in1017.3 mb - 0.00 in0.0 mm 0.00 in0.0 mm
09:02 PM 35.1°F1.7°C 33.8°F1.0°C 95% Calm Calm -- 30.04 in1017.3 mb - 0.00 in0.0 mm 0.00 in0.0 mm
09:07 PM 35.1°F1.7°C 33.8°F1.0°C 95% Calm Calm -- 30.04 in1017.3 mb - 0.00 in0.0 mm 0.00 in0.0 mm
09:12 PM 35.1°F1.7°C 33.8°F1.0°C 95% Calm Calm -- 30.04 in1017.3 mb - 0.00 in0.0 mm 0.00 in0.0 mm
09:17 PM 35.1°F1.7°C 33.8°F1.0°C 95% Calm Calm -- 30.04 in1017.3 mb - 0.00 in0.0 mm 0.00 in0.0 mm
09:22 PM 35.1°F1.7°C 33.8°F1.0°C 95% Calm Calm -- 30.05 in1017.6 mb - 0.00 in0.0 mm 0.00 in0.0 mm
09:27 PM 35.1°F1.7°C 33.8°F1.0°C 95% Calm Calm -- 30.05 in1017.6 mb - 0.00 in0.0 mm 0.00 in0.0 mm
09:32 PM 35.1°F1.7°C 33.8°F1.0°C 95% Calm Calm -- 30.05 in1017.6 mb - 0.00 in0.0 mm 0.00 in0.0 mm
09:37 PM 34.7°F1.5°C 33.4°F0.8°C 95% Calm Calm -- 30.05 in1017.6 mb - 0.00 in0.0 mm 0.00 in0.0 mm
09:42 PM 34.5°F1.4°C 33.3°F0.7°C 95% Calm Calm -- 30.06 in1017.9 mb - 0.00 in0.0 mm 0.00 in0.0 mm
09:47 PM 34.7°F1.5°C 33.4°F0.8°C 95% Calm Calm -- 30.06 in1017.9 mb - 0.00 in0.0 mm 0.00 in0.0 mm
09:52 PM 34.7°F1.5°C 33.4°F0.8°C 95% Calm Calm -- 30.06 in1017.9 mb - 0.00 in0.0 mm 0.00 in0.0 mm
09:57 PM 34.7°F1.5°C 33.4°F0.8°C 95% Calm Calm -- 30.06 in1017.9 mb - 0.00 in0.0 mm 0.00 in0.0 mm
10:02 PM 34.7°F1.5°C 33.4°F0.8°C 95% Calm Calm -- 30.06 in1017.9 mb - 0.00 in0.0 mm 0.00 in0.0 mm
10:07 PM 34.9°F1.6°C 33.6°F0.9°C 95% Calm Calm -- 30.06 in1017.9 mb - 0.00 in0.0 mm 0.00 in0.0 mm
10:12 PM 35.1°F1.7°C 33.8°F1.0°C 95% Calm Calm -- 30.07 in1018.3 mb - 0.00 in0.0 mm 0.00 in0.0 mm
10:17 PM 34.7°F1.5°C 33.4°F0.8°C 95% Calm Calm -- 30.07 in1018.3 mb - 0.00 in0.0 mm 0.00 in0.0 mm
10:22 PM 34.5°F1.4°C 33.3°F0.7°C 95% Calm Calm -- 30.07 in1018.3 mb - 0.00 in0.0 mm 0.00 in0.0 mm
10:27 PM 34.5°F1.4°C 33.3°F0.7°C 95% Calm Calm -- 30.07 in1018.3 mb - 0.00 in0.0 mm 0.00 in0.0 mm
10:32 PM 34.5°F1.4°C 33.3°F0.7°C 95% Calm Calm -- 30.06 in1017.9 mb - 0.00 in0.0 mm 0.00 in0.0 mm
10:37 PM 34.5°F1.4°C 33.3°F0.7°C 95% Calm Calm -- 30.07 in1018.3 mb - 0.00 in0.0 mm 0.00 in0.0 mm
10:42 PM 34.5°F1.4°C 33.4°F0.8°C 96% Calm Calm -- 30.06 in1017.9 mb - 0.00 in0.0 mm 0.00 in0.0 mm
10:47 PM 34.7°F1.5°C 33.6°F0.9°C 96% Calm Calm -- 30.06 in1017.9 mb - 0.00 in0.0 mm 0.00 in0.0 mm
10:52 PM 34.9°F1.6°C 33.8°F1.0°C 96% Calm Calm -- 30.06 in1017.9 mb - 0.00 in0.0 mm 0.00 in0.0 mm
10:57 PM 34.9°F1.6°C 33.8°F1.0°C 96% Calm Calm -- 30.06 in1017.9 mb - 0.00 in0.0 mm 0.00 in0.0 mm
11:02 PM 34.7°F1.5°C 33.6°F0.9°C 96% Calm Calm -- 30.06 in1017.9 mb - 0.00 in0.0 mm 0.00 in0.0 mm
11:07 PM 34.5°F1.4°C 33.4°F0.8°C 96% Calm Calm -- 30.07 in1018.3 mb - 0.00 in0.0 mm 0.00 in0.0 mm
11:12 PM 34.5°F1.4°C 33.4°F0.8°C 96% Calm Calm -- 30.07 in1018.3 mb - 0.00 in0.0 mm 0.00 in0.0 mm
11:17 PM 34.7°F1.5°C 33.6°F0.9°C 96% Calm Calm -- 30.07 in1018.3 mb - 0.00 in0.0 mm 0.00 in0.0 mm
11:22 PM 34.7°F1.5°C 33.6°F0.9°C 96% Calm Calm -- 30.07 in1018.3 mb - 0.00 in0.0 mm 0.00 in0.0 mm
11:27 PM 34.5°F1.4°C 33.4°F0.8°C 96% Calm Calm -- 30.07 in1018.3 mb - 0.00 in0.0 mm 0.00 in0.0 mm
11:32 PM 34.5°F1.4°C 33.4°F0.8°C 96% Calm Calm -- 30.07 in1018.3 mb - 0.00 in0.0 mm 0.00 in0.0 mm
11:37 PM 34.5°F1.4°C 33.4°F0.8°C 96% Calm Calm -- 30.07 in1018.3 mb - 0.00 in0.0 mm 0.00 in0.0 mm
11:42 PM 34.5°F1.4°C 33.4°F0.8°C 96% Calm Calm -- 30.07 in1018.3 mb - 0.00 in0.0 mm 0.00 in0.0 mm
11:47 PM 34.9°F1.6°C 33.8°F1.0°C 96% Calm Calm -- 30.07 in1018.3 mb - 0.00 in0.0 mm 0.00 in0.0 mm
11:52 PM 35.1°F1.7°C 34.0°F1.1°C 96% Calm Calm -- 30.07 in1018.3 mb - 0.00 in0.0 mm 0.00 in0.0 mm
11:57 PM 35.2°F1.8°C 34.2°F1.2°C 96% Calm Calm -- 30.07 in1018.3 mb - 0.00 in0.0 mm 0.00 in0.0 mm